sensor_id;sensor_type;location;lat;lon;timestamp;P1;durP1;ratioP1;P2;durP2;ratioP2
81006;SDS011;70472;47.592;17.640;2024-03-07T00:00:27;32.57;;;32.57;;
81006;SDS011;70472;47.592;17.640;2024-03-07T00:00:59;30.07;;;30.07;;
81006;SDS011;70472;47.592;17.640;2024-03-07T00:01:32;32.97;;;32.97;;
81006;SDS011;70472;47.592;17.640;2024-03-07T00:02:05;33.60;;;33.60;;
81006;SDS011;70472;47.592;17.640;2024-03-07T00:02:38;32.83;;;32.83;;
81006;SDS011;70472;47.592;17.640;2024-03-07T00:03:11;31.83;;;31.83;;
81006;SDS011;70472;47.592;17.640;2024-03-07T00:03:43;31.23;;;31.23;;
81006;SDS011;70472;47.592;17.640;2024-03-07T00:04:15;32.07;;;32.07;;
81006;SDS011;70472;47.592;17.640;2024-03-07T00:04:48;30.37;;;30.37;;
81006;SDS011;70472;47.592;17.640;2024-03-07T00:05:21;32.43;;;32.43;;
81006;SDS011;70472;47.592;17.640;2024-03-07T00:05:54;32.43;;;32.43;;
81006;SDS011;70472;47.592;17.640;2024-03-07T00:06:26;31.07;;;31.07;;
81006;SDS011;70472;47.592;17.640;2024-03-07T00:06:59;30.70;;;30.70;;
81006;SDS011;70472;47.592;17.640;2024-03-07T00:07:31;32.10;;;32.10;;
81006;SDS011;70472;47.592;17.640;2024-03-07T00:08:04;30.90;;;30.90;;
81006;SDS011;70472;47.592;17.640;2024-03-07T00:08:36;31.50;;;31.50;;
81006;SDS011;70472;47.592;17.640;2024-03-07T00:09:09;32.90;;;32.90;;
81006;SDS011;70472;47.592;17.640;2024-03-07T00:09:41;31.50;;;31.50;;
81006;SDS011;70472;47.592;17.640;2024-03-07T00:10:14;31.80;;;31.80;;
81006;SDS011;70472;47.592;17.640;2024-03-07T00:10:46;31.90;;;31.90;;
81006;SDS011;70472;47.592;17.640;2024-03-07T00:11:18;31.70;;;31.70;;
81006;SDS011;70472;47.592;17.640;2024-03-07T00:11:51;31.17;;;31.17;;
81006;SDS011;70472;47.592;17.640;2024-03-07T00:12:24;31.10;;;31.10;;
81006;SDS011;70472;47.592;17.640;2024-03-07T00:12:57;31.60;;;31.60;;
81006;SDS011;70472;47.592;17.640;2024-03-07T00:13:29;30.83;;;30.83;;
81006;SDS011;70472;47.592;17.640;2024-03-07T00:14:02;31.70;;;31.70;;
81006;SDS011;70472;47.592;17.640;2024-03-07T00:14:34;30.73;;;30.73;;
81006;SDS011;70472;47.592;17.640;2024-03-07T00:15:07;30.60;;;30.60;;
81006;SDS011;70472;47.592;17.640;2024-03-07T00:15:41;30.50;;;30.50;;
81006;SDS011;70472;47.592;17.640;2024-03-07T00:16:13;31.47;;;31.47;;
81006;SDS011;70472;47.592;17.640;2024-03-07T00:16:46;30.20;;;30.20;;
81006;SDS011;70472;47.592;17.640;2024-03-07T00:17:18;30.50;;;30.50;;
81006;SDS011;70472;47.592;17.640;2024-03-07T00:17:51;28.93;;;28.93;;
81006;SDS011;70472;47.592;17.640;2024-03-07T00:18:23;30.17;;;30.17;;
81006;SDS011;70472;47.592;17.640;2024-03-07T00:18:55;31.03;;;31.03;;
81006;SDS011;70472;47.592;17.640;2024-03-07T00:19:28;29.97;;;29.97;;
81006;SDS011;70472;47.592;17.640;2024-03-07T00:20:01;31.27;;;31.27;;
81006;SDS011;70472;47.592;17.640;2024-03-07T00:20:34;33.93;;;33.93;;
81006;SDS011;70472;47.592;17.640;2024-03-07T00:21:07;31.37;;;31.37;;
81006;SDS011;70472;47.592;17.640;2024-03-07T00:21:40;31.53;;;31.53;;
81006;SDS011;70472;47.592;17.640;2024-03-07T00:22:13;31.40;;;31.40;;
81006;SDS011;70472;47.592;17.640;2024-03-07T00:22:45;31.57;;;31.57;;
81006;SDS011;70472;47.592;17.640;2024-03-07T00:23:18;31.77;;;31.77;;
81006;SDS011;70472;47.592;17.640;2024-03-07T00:23:50;31.37;;;31.37;;
81006;SDS011;70472;47.592;17.640;2024-03-07T00:24:23;31.77;;;31.77;;
81006;SDS011;70472;47.592;17.640;2024-03-07T00:24:56;32.13;;;32.13;;
81006;SDS011;70472;47.592;17.640;2024-03-07T00:25:28;30.90;;;30.90;;
81006;SDS011;70472;47.592;17.640;2024-03-07T00:26:01;30.83;;;30.83;;
81006;SDS011;70472;47.592;17.640;2024-03-07T00:26:34;30.50;;;30.50;;
81006;SDS011;70472;47.592;17.640;2024-03-07T00:27:06;31.13;;;31.13;;
81006;SDS011;70472;47.592;17.640;2024-03-07T00:27:38;31.17;;;31.17;;
81006;SDS011;70472;47.592;17.640;2024-03-07T00:28:11;30.50;;;30.50;;
81006;SDS011;70472;47.592;17.640;2024-03-07T00:28:43;31.50;;;31.50;;
81006;SDS011;70472;47.592;17.640;2024-03-07T00:29:16;31.77;;;31.77;;
81006;SDS011;70472;47.592;17.640;2024-03-07T00:29:50;31.83;;;31.83;;
81006;SDS011;70472;47.592;17.640;2024-03-07T00:30:23;31.37;;;31.37;;
81006;SDS011;70472;47.592;17.640;2024-03-07T00:30:55;31.53;;;31.53;;
81006;SDS011;70472;47.592;17.640;2024-03-07T00:31:28;33.30;;;33.30;;
81006;SDS011;70472;47.592;17.640;2024-03-07T00:32:00;31.70;;;31.70;;
81006;SDS011;70472;47.592;17.640;2024-03-07T00:32:34;30.37;;;30.37;;
81006;SDS011;70472;47.592;17.640;2024-03-07T00:33:07;31.40;;;31.40;;
81006;SDS011;70472;47.592;17.640;2024-03-07T00:33:39;33.13;;;33.13;;
81006;SDS011;70472;47.592;17.640;2024-03-07T00:34:16;31.90;;;31.90;;
81006;SDS011;70472;47.592;17.640;2024-03-07T00:34:50;31.90;;;31.90;;
81006;SDS011;70472;47.592;17.640;2024-03-07T00:35:22;30.53;;;30.53;;
81006;SDS011;70472;47.592;17.640;2024-03-07T00:35:55;30.50;;;30.50;;
81006;SDS011;70472;47.592;17.640;2024-03-07T00:36:28;33.13;;;33.13;;
81006;SDS011;70472;47.592;17.640;2024-03-07T00:37:00;31.70;;;31.70;;
81006;SDS011;70472;47.592;17.640;2024-03-07T00:37:32;31.60;;;31.60;;
81006;SDS011;70472;47.592;17.640;2024-03-07T00:38:05;31.70;;;31.70;;
81006;SDS011;70472;47.592;17.640;2024-03-07T00:38:37;31.17;;;31.17;;
81006;SDS011;70472;47.592;17.640;2024-03-07T00:39:10;30.80;;;30.80;;
81006;SDS011;70472;47.592;17.640;2024-03-07T00:39:43;30.87;;;30.87;;
81006;SDS011;70472;47.592;17.640;2024-03-07T00:40:16;32.23;;;32.23;;
81006;SDS011;70472;47.592;17.640;2024-03-07T00:40:48;31.67;;;31.67;;
81006;SDS011;70472;47.592;17.640;2024-03-07T00:41:20;31.53;;;31.53;;
81006;SDS011;70472;47.592;17.640;2024-03-07T00:41:53;30.40;;;30.40;;
81006;SDS011;70472;47.592;17.640;2024-03-07T00:42:25;31.67;;;31.67;;
81006;SDS011;70472;47.592;17.640;2024-03-07T00:42:58;31.47;;;31.47;;
81006;SDS011;70472;47.592;17.640;2024-03-07T00:43:30;31.20;;;31.20;;
81006;SDS011;70472;47.592;17.640;2024-03-07T00:44:03;32.23;;;32.23;;
81006;SDS011;70472;47.592;17.640;2024-03-07T00:44:35;31.57;;;31.57;;
81006;SDS011;70472;47.592;17.640;2024-03-07T00:45:08;31.80;;;31.80;;
81006;SDS011;70472;47.592;17.640;2024-03-07T00:45:41;31.57;;;31.57;;
81006;SDS011;70472;47.592;17.640;2024-03-07T00:46:13;31.30;;;31.30;;
81006;SDS011;70472;47.592;17.640;2024-03-07T00:46:46;31.57;;;31.57;;
81006;SDS011;70472;47.592;17.640;2024-03-07T00:47:18;30.97;;;30.97;;
81006;SDS011;70472;47.592;17.640;2024-03-07T00:47:50;32.60;;;32.60;;
81006;SDS011;70472;47.592;17.640;2024-03-07T00:48:23;31.50;;;31.50;;
81006;SDS011;70472;47.592;17.640;2024-03-07T00:48:55;32.10;;;32.10;;
81006;SDS011;70472;47.592;17.640;2024-03-07T00:49:28;32.30;;;32.30;;
81006;SDS011;70472;47.592;17.640;2024-03-07T00:50:01;31.63;;;31.63;;
81006;SDS011;70472;47.592;17.640;2024-03-07T00:50:35;32.30;;;32.30;;
81006;SDS011;70472;47.592;17.640;2024-03-07T00:51:07;31.33;;;31.33;;
81006;SDS011;70472;47.592;17.640;2024-03-07T00:51:40;30.83;;;30.83;;
81006;SDS011;70472;47.592;17.640;2024-03-07T00:52:12;31.23;;;31.23;;
81006;SDS011;70472;47.592;17.640;2024-03-07T00:52:45;30.47;;;30.47;;
81006;SDS011;70472;47.592;17.640;2024-03-07T00:53:18;31.30;;;31.30;;
81006;SDS011;70472;47.592;17.640;2024-03-07T00:53:50;32.13;;;32.13;;
81006;SDS011;70472;47.592;17.640;2024-03-07T00:54:23;29.90;;;29.90;;
81006;SDS011;70472;47.592;17.640;2024-03-07T00:54:55;30.43;;;30.43;;
81006;SDS011;70472;47.592;17.640;2024-03-07T00:55:28;29.23;;;29.23;;
81006;SDS011;70472;47.592;17.640;2024-03-07T00:56:00;31.03;;;31.03;;
81006;SDS011;70472;47.592;17.640;2024-03-07T00:56:32;30.60;;;30.60;;
81006;SDS011;70472;47.592;17.640;2024-03-07T00:57:05;30.87;;;30.87;;
81006;SDS011;70472;47.592;17.640;2024-03-07T00:57:43;31.93;;;31.93;;
81006;SDS011;70472;47.592;17.640;2024-03-07T00:58:16;33.00;;;33.00;;
81006;SDS011;70472;47.592;17.640;2024-03-07T00:58:49;32.43;;;32.43;;
81006;SDS011;70472;47.592;17.640;2024-03-07T00:59:24;31.67;;;31.67;;
81006;SDS011;70472;47.592;17.640;2024-03-07T00:59:57;30.40;;;30.40;;
81006;SDS011;70472;47.592;17.640;2024-03-07T01:00:29;30.67;;;30.67;;
81006;SDS011;70472;47.592;17.640;2024-03-07T01:01:02;30.73;;;30.73;;
81006;SDS011;70472;47.592;17.640;2024-03-07T01:01:34;31.40;;;31.40;;
81006;SDS011;70472;47.592;17.640;2024-03-07T01:02:07;29.80;;;29.80;;
81006;SDS011;70472;47.592;17.640;2024-03-07T01:02:40;30.30;;;30.30;;
81006;SDS011;70472;47.592;17.640;2024-03-07T01:03:12;29.60;;;29.60;;
81006;SDS011;70472;47.592;17.640;2024-03-07T01:03:45;31.20;;;31.20;;
81006;SDS011;70472;47.592;17.640;2024-03-07T01:04:18;31.17;;;31.17;;
81006;SDS011;70472;47.592;17.640;2024-03-07T01:04:50;30.00;;;30.00;;
81006;SDS011;70472;47.592;17.640;2024-03-07T01:05:25;30.20;;;30.20;;
81006;SDS011;70472;47.592;17.640;2024-03-07T01:05:59;30.83;;;30.83;;
81006;SDS011;70472;47.592;17.640;2024-03-07T01:06:31;30.17;;;30.17;;
81006;SDS011;70472;47.592;17.640;2024-03-07T01:07:03;30.27;;;30.27;;
81006;SDS011;70472;47.592;17.640;2024-03-07T01:07:36;29.03;;;29.03;;
81006;SDS011;70472;47.592;17.640;2024-03-07T01:08:08;30.13;;;30.13;;
81006;SDS011;70472;47.592;17.640;2024-03-07T01:08:41;31.13;;;31.13;;
81006;SDS011;70472;47.592;17.640;2024-03-07T01:09:13;30.03;;;30.03;;
81006;SDS011;70472;47.592;17.640;2024-03-07T01:09:46;30.50;;;30.50;;
81006;SDS011;70472;47.592;17.640;2024-03-07T01:10:19;31.03;;;31.03;;
81006;SDS011;70472;47.592;17.640;2024-03-07T01:10:51;29.60;;;29.60;;
81006;SDS011;70472;47.592;17.640;2024-03-07T01:11:24;29.83;;;29.83;;
81006;SDS011;70472;47.592;17.640;2024-03-07T01:11:58;30.97;;;30.97;;
81006;SDS011;70472;47.592;17.640;2024-03-07T01:12:30;31.30;;;31.30;;
81006;SDS011;70472;47.592;17.640;2024-03-07T01:13:05;29.87;;;29.87;;
81006;SDS011;70472;47.592;17.640;2024-03-07T01:13:38;30.33;;;30.33;;
81006;SDS011;70472;47.592;17.640;2024-03-07T01:14:11;31.80;;;31.80;;
81006;SDS011;70472;47.592;17.640;2024-03-07T01:14:44;30.27;;;30.27;;
81006;SDS011;70472;47.592;17.640;2024-03-07T01:15:16;32.30;;;32.30;;
81006;SDS011;70472;47.592;17.640;2024-03-07T01:15:49;30.57;;;30.57;;
81006;SDS011;70472;47.592;17.640;2024-03-07T01:16:22;29.77;;;29.77;;
81006;SDS011;70472;47.592;17.640;2024-03-07T01:16:55;30.27;;;30.27;;
81006;SDS011;70472;47.592;17.640;2024-03-07T01:17:27;30.03;;;30.03;;
81006;SDS011;70472;47.592;17.640;2024-03-07T01:18:00;29.53;;;29.53;;
81006;SDS011;70472;47.592;17.640;2024-03-07T01:18:32;30.57;;;30.57;;
81006;SDS011;70472;47.592;17.640;2024-03-07T01:19:05;30.87;;;30.87;;
81006;SDS011;70472;47.592;17.640;2024-03-07T01:19:39;30.63;;;30.63;;
81006;SDS011;70472;47.592;17.640;2024-03-07T01:20:11;29.50;;;29.50;;
81006;SDS011;70472;47.592;17.640;2024-03-07T01:20:44;29.53;;;29.53;;
81006;SDS011;70472;47.592;17.640;2024-03-07T01:21:16;29.83;;;29.83;;
81006;SDS011;70472;47.592;17.640;2024-03-07T01:21:49;29.43;;;29.43;;
81006;SDS011;70472;47.592;17.640;2024-03-07T01:22:21;28.30;;;28.30;;
81006;SDS011;70472;47.592;17.640;2024-03-07T01:22:54;27.70;;;27.70;;
81006;SDS011;70472;47.592;17.640;2024-03-07T01:23:26;28.43;;;28.43;;
81006;SDS011;70472;47.592;17.640;2024-03-07T01:23:59;29.67;;;29.67;;
81006;SDS011;70472;47.592;17.640;2024-03-07T01:24:32;30.47;;;30.47;;
81006;SDS011;70472;47.592;17.640;2024-03-07T01:25:05;29.00;;;29.00;;
81006;SDS011;70472;47.592;17.640;2024-03-07T01:25:39;27.60;;;27.60;;
81006;SDS011;70472;47.592;17.640;2024-03-07T01:26:11;28.73;;;28.73;;
81006;SDS011;70472;47.592;17.640;2024-03-07T01:26:44;28.77;;;28.77;;
81006;SDS011;70472;47.592;17.640;2024-03-07T01:27:16;28.10;;;28.10;;
81006;SDS011;70472;47.592;17.640;2024-03-07T01:27:49;27.80;;;27.80;;
81006;SDS011;70472;47.592;17.640;2024-03-07T01:28:21;28.77;;;28.77;;
81006;SDS011;70472;47.592;17.640;2024-03-07T01:28:54;29.53;;;29.53;;
81006;SDS011;70472;47.592;17.640;2024-03-07T01:29:28;29.37;;;29.37;;
81006;SDS011;70472;47.592;17.640;2024-03-07T01:30:00;29.07;;;29.07;;
81006;SDS011;70472;47.592;17.640;2024-03-07T01:30:33;29.27;;;29.27;;
81006;SDS011;70472;47.592;17.640;2024-03-07T01:31:05;28.37;;;28.37;;
81006;SDS011;70472;47.592;17.640;2024-03-07T01:31:38;27.60;;;27.60;;
81006;SDS011;70472;47.592;17.640;2024-03-07T01:32:10;28.03;;;28.03;;
81006;SDS011;70472;47.592;17.640;2024-03-07T01:32:43;29.63;;;29.63;;
81006;SDS011;70472;47.592;17.640;2024-03-07T01:33:16;29.73;;;29.73;;
81006;SDS011;70472;47.592;17.640;2024-03-07T01:33:49;29.43;;;29.43;;
81006;SDS011;70472;47.592;17.640;2024-03-07T01:34:22;28.20;;;28.20;;
81006;SDS011;70472;47.592;17.640;2024-03-07T01:34:54;27.53;;;27.53;;
81006;SDS011;70472;47.592;17.640;2024-03-07T01:35:27;29.50;;;29.50;;
81006;SDS011;70472;47.592;17.640;2024-03-07T01:35:59;28.73;;;28.73;;
81006;SDS011;70472;47.592;17.640;2024-03-07T01:36:32;28.57;;;28.57;;
81006;SDS011;70472;47.592;17.640;2024-03-07T01:37:04;30.00;;;30.00;;
81006;SDS011;70472;47.592;17.640;2024-03-07T01:37:39;29.00;;;29.00;;
81006;SDS011;70472;47.592;17.640;2024-03-07T01:38:12;28.63;;;28.63;;
81006;SDS011;70472;47.592;17.640;2024-03-07T01:38:46;27.90;;;27.90;;
81006;SDS011;70472;47.592;17.640;2024-03-07T01:39:18;28.77;;;28.77;;
81006;SDS011;70472;47.592;17.640;2024-03-07T01:39:50;29.03;;;29.03;;
81006;SDS011;70472;47.592;17.640;2024-03-07T01:40:23;29.70;;;29.70;;
81006;SDS011;70472;47.592;17.640;2024-03-07T01:40:56;30.47;;;30.47;;
81006;SDS011;70472;47.592;17.640;2024-03-07T01:41:29;31.13;;;31.13;;
81006;SDS011;70472;47.592;17.640;2024-03-07T01:42:01;29.67;;;29.67;;
81006;SDS011;70472;47.592;17.640;2024-03-07T01:42:34;28.83;;;28.83;;
81006;SDS011;70472;47.592;17.640;2024-03-07T01:43:07;27.77;;;27.77;;
81006;SDS011;70472;47.592;17.640;2024-03-07T01:43:40;28.63;;;28.63;;
81006;SDS011;70472;47.592;17.640;2024-03-07T01:44:15;28.07;;;28.07;;
81006;SDS011;70472;47.592;17.640;2024-03-07T01:44:47;28.40;;;28.40;;
81006;SDS011;70472;47.592;17.640;2024-03-07T01:45:19;26.87;;;26.87;;
81006;SDS011;70472;47.592;17.640;2024-03-07T01:45:53;28.70;;;28.70;;
81006;SDS011;70472;47.592;17.640;2024-03-07T01:46:28;28.30;;;28.30;;
81006;SDS011;70472;47.592;17.640;2024-03-07T01:47:01;27.03;;;27.03;;
81006;SDS011;70472;47.592;17.640;2024-03-07T01:47:34;28.43;;;28.43;;
81006;SDS011;70472;47.592;17.640;2024-03-07T01:48:10;29.43;;;29.43;;
81006;SDS011;70472;47.592;17.640;2024-03-07T01:48:56;29.60;;;29.60;;
81006;SDS011;70472;47.592;17.640;2024-03-07T01:49:30;29.97;;;29.97;;
81006;SDS011;70472;47.592;17.640;2024-03-07T01:50:04;30.03;;;30.03;;
81006;SDS011;70472;47.592;17.640;2024-03-07T01:50:37;29.27;;;29.27;;
81006;SDS011;70472;47.592;17.640;2024-03-07T01:51:10;27.33;;;27.33;;
81006;SDS011;70472;47.592;17.640;2024-03-07T01:51:43;28.20;;;28.20;;
81006;SDS011;70472;47.592;17.640;2024-03-07T01:52:16;27.97;;;27.97;;
81006;SDS011;70472;47.592;17.640;2024-03-07T01:52:49;28.17;;;28.17;;
81006;SDS011;70472;47.592;17.640;2024-03-07T01:53:22;26.40;;;26.40;;
81006;SDS011;70472;47.592;17.640;2024-03-07T01:53:57;29.03;;;29.03;;
81006;SDS011;70472;47.592;17.640;2024-03-07T01:54:30;29.53;;;29.53;;
81006;SDS011;70472;47.592;17.640;2024-03-07T01:55:04;29.37;;;29.37;;
81006;SDS011;70472;47.592;17.640;2024-03-07T01:55:38;28.67;;;28.67;;
81006;SDS011;70472;47.592;17.640;2024-03-07T01:56:10;28.97;;;28.97;;
81006;SDS011;70472;47.592;17.640;2024-03-07T01:56:43;27.10;;;27.10;;
81006;SDS011;70472;47.592;17.640;2024-03-07T01:57:16;27.87;;;27.87;;
81006;SDS011;70472;47.592;17.640;2024-03-07T01:57:50;28.07;;;28.07;;
81006;SDS011;70472;47.592;17.640;2024-03-07T01:58:22;27.80;;;27.80;;
81006;SDS011;70472;47.592;17.640;2024-03-07T01:58:56;27.83;;;27.83;;
81006;SDS011;70472;47.592;17.640;2024-03-07T01:59:31;28.17;;;28.17;;
81006;SDS011;70472;47.592;17.640;2024-03-07T02:00:05;29.80;;;29.80;;
81006;SDS011;70472;47.592;17.640;2024-03-07T02:00:39;30.17;;;30.17;;
81006;SDS011;70472;47.592;17.640;2024-03-07T02:01:11;30.50;;;30.50;;
81006;SDS011;70472;47.592;17.640;2024-03-07T02:01:45;28.97;;;28.97;;
81006;SDS011;70472;47.592;17.640;2024-03-07T02:02:18;29.03;;;29.03;;
81006;SDS011;70472;47.592;17.640;2024-03-07T02:02:51;29.43;;;29.43;;
81006;SDS011;70472;47.592;17.640;2024-03-07T02:03:25;29.23;;;29.23;;
81006;SDS011;70472;47.592;17.640;2024-03-07T02:03:57;28.83;;;28.83;;
81006;SDS011;70472;47.592;17.640;2024-03-07T02:04:30;27.77;;;27.77;;
81006;SDS011;70472;47.592;17.640;2024-03-07T02:05:02;28.33;;;28.33;;
81006;SDS011;70472;47.592;17.640;2024-03-07T02:05:35;27.87;;;27.87;;
81006;SDS011;70472;47.592;17.640;2024-03-07T02:06:07;28.43;;;28.43;;
81006;SDS011;70472;47.592;17.640;2024-03-07T02:06:40;26.97;;;26.97;;
81006;SDS011;70472;47.592;17.640;2024-03-07T02:07:13;29.50;;;29.50;;
81006;SDS011;70472;47.592;17.640;2024-03-07T02:07:45;30.10;;;30.10;;
81006;SDS011;70472;47.592;17.640;2024-03-07T02:08:18;30.33;;;30.33;;
81006;SDS011;70472;47.592;17.640;2024-03-07T02:08:51;28.73;;;28.73;;
81006;SDS011;70472;47.592;17.640;2024-03-07T02:09:23;27.70;;;27.70;;
81006;SDS011;70472;47.592;17.640;2024-03-07T02:10:05;29.17;;;29.17;;
81006;SDS011;70472;47.592;17.640;2024-03-07T02:10:38;27.57;;;27.57;;
81006;SDS011;70472;47.592;17.640;2024-03-07T02:11:10;27.50;;;27.50;;
81006;SDS011;70472;47.592;17.640;2024-03-07T02:11:43;26.60;;;26.60;;
81006;SDS011;70472;47.592;17.640;2024-03-07T02:12:15;27.57;;;27.57;;
81006;SDS011;70472;47.592;17.640;2024-03-07T02:12:48;27.90;;;27.90;;
81006;SDS011;70472;47.592;17.640;2024-03-07T02:13:20;27.53;;;27.53;;
81006;SDS011;70472;47.592;17.640;2024-03-07T02:13:52;26.23;;;26.23;;
81006;SDS011;70472;47.592;17.640;2024-03-07T02:14:25;27.87;;;27.87;;
81006;SDS011;70472;47.592;17.640;2024-03-07T02:15:00;26.73;;;26.73;;
81006;SDS011;70472;47.592;17.640;2024-03-07T02:15:33;25.97;;;25.97;;
81006;SDS011;70472;47.592;17.640;2024-03-07T02:16:05;25.87;;;25.87;;
81006;SDS011;70472;47.592;17.640;2024-03-07T02:16:38;26.07;;;26.07;;
81006;SDS011;70472;47.592;17.640;2024-03-07T02:17:10;26.73;;;26.73;;
81006;SDS011;70472;47.592;17.640;2024-03-07T02:17:43;27.20;;;27.20;;
81006;SDS011;70472;47.592;17.640;2024-03-07T02:18:16;28.17;;;28.17;;
81006;SDS011;70472;47.592;17.640;2024-03-07T02:18:48;28.13;;;28.13;;
81006;SDS011;70472;47.592;17.640;2024-03-07T02:19:22;26.57;;;26.57;;
81006;SDS011;70472;47.592;17.640;2024-03-07T02:19:55;27.47;;;27.47;;
81006;SDS011;70472;47.592;17.640;2024-03-07T02:20:27;27.90;;;27.90;;
81006;SDS011;70472;47.592;17.640;2024-03-07T02:21:00;28.37;;;28.37;;
81006;SDS011;70472;47.592;17.640;2024-03-07T02:21:32;29.57;;;29.57;;
81006;SDS011;70472;47.592;17.640;2024-03-07T02:22:05;29.13;;;29.13;;
81006;SDS011;70472;47.592;17.640;2024-03-07T02:22:37;28.20;;;28.20;;
81006;SDS011;70472;47.592;17.640;2024-03-07T02:23:10;28.73;;;28.73;;
81006;SDS011;70472;47.592;17.640;2024-03-07T02:23:42;28.07;;;28.07;;
81006;SDS011;70472;47.592;17.640;2024-03-07T02:24:15;27.60;;;27.60;;
81006;SDS011;70472;47.592;17.640;2024-03-07T02:24:48;28.83;;;28.83;;
81006;SDS011;70472;47.592;17.640;2024-03-07T02:25:21;28.80;;;28.80;;
81006;SDS011;70472;47.592;17.640;2024-03-07T02:25:54;28.23;;;28.23;;
81006;SDS011;70472;47.592;17.640;2024-03-07T02:26:26;27.90;;;27.90;;
81006;SDS011;70472;47.592;17.640;2024-03-07T02:26:59;28.57;;;28.57;;
81006;SDS011;70472;47.592;17.640;2024-03-07T02:27:31;28.03;;;28.03;;
81006;SDS011;70472;47.592;17.640;2024-03-07T02:28:04;28.00;;;28.00;;
81006;SDS011;70472;47.592;17.640;2024-03-07T02:28:37;28.10;;;28.10;;
81006;SDS011;70472;47.592;17.640;2024-03-07T02:29:10;28.30;;;28.30;;
81006;SDS011;70472;47.592;17.640;2024-03-07T02:29:42;29.80;;;29.80;;
81006;SDS011;70472;47.592;17.640;2024-03-07T02:30:15;28.83;;;28.83;;
81006;SDS011;70472;47.592;17.640;2024-03-07T02:30:47;27.70;;;27.70;;
81006;SDS011;70472;47.592;17.640;2024-03-07T02:31:21;27.40;;;27.40;;
81006;SDS011;70472;47.592;17.640;2024-03-07T02:31:54;28.17;;;28.17;;
81006;SDS011;70472;47.592;17.640;2024-03-07T02:32:26;28.87;;;28.87;;
81006;SDS011;70472;47.592;17.640;2024-03-07T02:32:59;29.03;;;29.03;;
81006;SDS011;70472;47.592;17.640;2024-03-07T02:33:31;28.40;;;28.40;;
81006;SDS011;70472;47.592;17.640;2024-03-07T02:34:04;29.93;;;29.93;;
81006;SDS011;70472;47.592;17.640;2024-03-07T02:34:36;29.67;;;29.67;;
81006;SDS011;70472;47.592;17.640;2024-03-07T02:35:09;29.87;;;29.87;;
81006;SDS011;70472;47.592;17.640;2024-03-07T02:35:41;28.70;;;28.70;;
81006;SDS011;70472;47.592;17.640;2024-03-07T02:36:15;29.33;;;29.33;;
81006;SDS011;70472;47.592;17.640;2024-03-07T02:36:47;28.60;;;28.60;;
81006;SDS011;70472;47.592;17.640;2024-03-07T02:37:20;29.17;;;29.17;;
81006;SDS011;70472;47.592;17.640;2024-03-07T02:37:52;29.67;;;29.67;;
81006;SDS011;70472;47.592;17.640;2024-03-07T02:38:24;26.47;;;26.47;;
81006;SDS011;70472;47.592;17.640;2024-03-07T02:38:57;27.70;;;27.70;;
81006;SDS011;70472;47.592;17.640;2024-03-07T02:39:29;28.00;;;28.00;;
81006;SDS011;70472;47.592;17.640;2024-03-07T02:40:02;28.63;;;28.63;;
81006;SDS011;70472;47.592;17.640;2024-03-07T02:40:35;29.07;;;29.07;;
81006;SDS011;70472;47.592;17.640;2024-03-07T02:41:07;29.47;;;29.47;;
81006;SDS011;70472;47.592;17.640;2024-03-07T02:41:40;28.70;;;28.70;;
81006;SDS011;70472;47.592;17.640;2024-03-07T02:42:12;29.10;;;29.10;;
81006;SDS011;70472;47.592;17.640;2024-03-07T02:42:44;28.87;;;28.87;;
81006;SDS011;70472;47.592;17.640;2024-03-07T02:43:18;27.30;;;27.30;;
81006;SDS011;70472;47.592;17.640;2024-03-07T02:43:51;28.07;;;28.07;;
81006;SDS011;70472;47.592;17.640;2024-03-07T02:44:23;27.27;;;27.27;;
81006;SDS011;70472;47.592;17.640;2024-03-07T02:44:56;28.17;;;28.17;;
81006;SDS011;70472;47.592;17.640;2024-03-07T02:45:28;28.77;;;28.77;;
81006;SDS011;70472;47.592;17.640;2024-03-07T02:46:01;27.97;;;27.97;;
81006;SDS011;70472;47.592;17.640;2024-03-07T02:46:33;26.97;;;26.97;;
81006;SDS011;70472;47.592;17.640;2024-03-07T02:47:05;28.23;;;28.23;;
81006;SDS011;70472;47.592;17.640;2024-03-07T02:47:38;26.97;;;26.97;;
81006;SDS011;70472;47.592;17.640;2024-03-07T02:48:10;27.50;;;27.50;;
81006;SDS011;70472;47.592;17.640;2024-03-07T02:48:43;29.07;;;29.07;;
81006;SDS011;70472;47.592;17.640;2024-03-07T02:49:15;28.67;;;28.67;;
81006;SDS011;70472;47.592;17.640;2024-03-07T02:49:48;28.17;;;28.17;;
81006;SDS011;70472;47.592;17.640;2024-03-07T02:50:20;28.53;;;28.53;;
81006;SDS011;70472;47.592;17.640;2024-03-07T02:50:53;28.20;;;28.20;;
81006;SDS011;70472;47.592;17.640;2024-03-07T02:51:26;27.83;;;27.83;;
81006;SDS011;70472;47.592;17.640;2024-03-07T02:51:58;28.30;;;28.30;;
81006;SDS011;70472;47.592;17.640;2024-03-07T02:52:31;28.90;;;28.90;;
81006;SDS011;70472;47.592;17.640;2024-03-07T02:53:04;28.50;;;28.50;;
81006;SDS011;70472;47.592;17.640;2024-03-07T02:53:36;26.93;;;26.93;;
81006;SDS011;70472;47.592;17.640;2024-03-07T02:54:09;27.03;;;27.03;;
81006;SDS011;70472;47.592;17.640;2024-03-07T02:54:41;25.93;;;25.93;;
81006;SDS011;70472;47.592;17.640;2024-03-07T02:55:14;27.40;;;27.40;;
81006;SDS011;70472;47.592;17.640;2024-03-07T02:55:47;27.10;;;27.10;;
81006;SDS011;70472;47.592;17.640;2024-03-07T02:56:19;27.23;;;27.23;;
81006;SDS011;70472;47.592;17.640;2024-03-07T02:56:51;25.87;;;25.87;;
81006;SDS011;70472;47.592;17.640;2024-03-07T02:57:24;27.13;;;27.13;;
81006;SDS011;70472;47.592;17.640;2024-03-07T02:57:56;27.57;;;27.57;;
81006;SDS011;70472;47.592;17.640;2024-03-07T02:58:30;27.97;;;27.97;;
81006;SDS011;70472;47.592;17.640;2024-03-07T02:59:03;27.07;;;27.07;;
81006;SDS011;70472;47.592;17.640;2024-03-07T02:59:35;27.27;;;27.27;;
81006;SDS011;70472;47.592;17.640;2024-03-07T03:00:08;27.83;;;27.83;;
81006;SDS011;70472;47.592;17.640;2024-03-07T03:00:41;27.83;;;27.83;;
81006;SDS011;70472;47.592;17.640;2024-03-07T03:01:14;27.80;;;27.80;;
81006;SDS011;70472;47.592;17.640;2024-03-07T03:01:46;27.13;;;27.13;;
81006;SDS011;70472;47.592;17.640;2024-03-07T03:02:19;26.63;;;26.63;;
81006;SDS011;70472;47.592;17.640;2024-03-07T03:02:51;26.87;;;26.87;;
81006;SDS011;70472;47.592;17.640;2024-03-07T03:03:24;25.33;;;25.33;;
81006;SDS011;70472;47.592;17.640;2024-03-07T03:03:57;24.83;;;24.83;;
81006;SDS011;70472;47.592;17.640;2024-03-07T03:04:29;25.03;;;25.03;;
81006;SDS011;70472;47.592;17.640;2024-03-07T03:05:02;23.80;;;23.80;;
81006;SDS011;70472;47.592;17.640;2024-03-07T03:05:35;23.70;;;23.70;;
81006;SDS011;70472;47.592;17.640;2024-03-07T03:06:08;24.30;;;24.30;;
81006;SDS011;70472;47.592;17.640;2024-03-07T03:06:41;26.10;;;26.10;;
81006;SDS011;70472;47.592;17.640;2024-03-07T03:07:13;24.63;;;24.63;;
81006;SDS011;70472;47.592;17.640;2024-03-07T03:07:46;24.50;;;24.50;;
81006;SDS011;70472;47.592;17.640;2024-03-07T03:08:18;25.50;;;25.50;;
81006;SDS011;70472;47.592;17.640;2024-03-07T03:08:51;24.87;;;24.87;;
81006;SDS011;70472;47.592;17.640;2024-03-07T03:09:23;25.43;;;25.43;;